createdAt,value
2017-05-12T00:00:05.718Z,40.5
2017-05-12T00:02:05.422Z,40.3
2017-05-12T00:04:10.760Z,40.5
2017-05-12T00:06:08.020Z,40.4
2017-05-12T00:08:07.810Z,40.5
2017-05-12T00:10:05.952Z,40.5
2017-05-12T00:12:08.189Z,40.5
2017-05-12T00:14:10.944Z,40.6
2017-05-12T00:16:08.524Z,40.2
2017-05-12T00:18:07.954Z,40.5
2017-05-12T00:20:05.742Z,40.4
2017-05-12T00:22:08.284Z,40.5
2017-05-12T00:24:06.004Z,40.5
2017-05-12T00:26:06.268Z,40.4
2017-05-12T00:28:06.207Z,40.5
2017-05-12T00:30:05.929Z,40.5
2017-05-12T00:32:08.222Z,40.6
2017-05-12T00:34:06.264Z,40.6
2017-05-12T00:36:05.469Z,40.5
2017-05-12T00:38:07.725Z,40.7
2017-05-12T00:40:05.580Z,40.6
2017-05-12T00:42:10.624Z,40.5
2017-05-12T00:44:05.321Z,40.7
2017-05-12T00:46:10.235Z,40.5
2017-05-12T00:48:05.925Z,40.4
2017-05-12T00:50:05.609Z,40.8
2017-05-12T00:52:10.548Z,40.5
2017-05-12T00:54:05.336Z,40.5
2017-05-12T00:56:05.046Z,40.5
2017-05-12T00:58:13.075Z,40.7
2017-05-12T01:00:05.738Z,40.6
2017-05-12T01:02:05.515Z,40.7
2017-05-12T01:04:08.600Z,41
2017-05-12T01:06:05.356Z,41
2017-05-12T01:08:05.167Z,40.9
2017-05-12T01:10:06.246Z,41.1
2017-05-12T01:12:10.604Z,40.8
2017-05-12T01:14:05.661Z,40.8
2017-05-12T01:16:06.261Z,41.1
2017-05-12T01:18:05.166Z,41.1
2017-05-12T01:20:10.460Z,41.2
2017-05-12T01:22:07.851Z,41.1
2017-05-12T01:24:05.583Z,40.9
2017-05-12T01:26:10.327Z,41.2
2017-05-12T01:28:05.183Z,41.2
2017-05-12T01:30:06.070Z,41.2
2017-05-12T01:32:07.929Z,41.1
2017-05-12T01:34:10.425Z,41.2
2017-05-12T01:36:07.624Z,41.3
2017-05-12T01:38:05.400Z,41.3
2017-05-12T01:40:07.852Z,41.1
2017-05-12T01:42:05.136Z,41.1
2017-05-12T01:44:05.809Z,41.2
2017-05-12T01:46:05.837Z,41
2017-05-12T01:48:10.666Z,41.2
2017-05-12T01:50:05.341Z,41.2
2017-05-12T01:52:05.372Z,41.2
2017-05-12T01:54:05.111Z,41.3
2017-05-12T01:56:05.807Z,41.2
2017-05-12T01:58:17.973Z,41.2
2017-05-12T02:00:05.667Z,41.2
2017-05-12T02:02:05.692Z,41.5
2017-05-12T02:04:05.857Z,41.4
2017-05-12T02:06:08.056Z,41.4
2017-05-12T02:08:05.329Z,41.3
2017-05-12T02:10:05.206Z,41.5
2017-05-12T02:12:05.928Z,41.3
2017-05-12T02:14:05.612Z,41.3
2017-05-12T02:16:05.647Z,41.5
2017-05-12T02:18:05.327Z,41.4
2017-05-12T02:20:04.984Z,41.3
2017-05-12T02:22:06.043Z,41.3
2017-05-12T02:24:05.725Z,41.3
2017-05-12T02:26:05.964Z,41.3
2017-05-12T02:28:05.805Z,41.6
2017-05-12T02:30:07.521Z,41.4
2017-05-12T02:32:10.275Z,41.7
2017-05-12T02:34:06.288Z,41.5
2017-05-12T02:36:05.988Z,41.4
2017-05-12T02:38:05.692Z,41.5
2017-05-12T02:40:05.782Z,41.7
2017-05-12T02:42:05.443Z,41.7
2017-05-12T02:44:05.173Z,41.7
2017-05-12T02:46:06.161Z,41.8
2017-05-12T02:48:05.972Z,41.7
2017-05-12T02:50:05.870Z,41.7
2017-05-12T02:52:05.245Z,41.8
2017-05-12T02:54:05.491Z,41.8
2017-05-12T02:56:05.802Z,41.8
2017-05-12T02:58:05.696Z,41.9
2017-05-12T03:00:05.467Z,41.9
2017-05-12T03:02:05.174Z,41.8
2017-05-12T03:04:06.104Z,41.9
2017-05-12T03:06:08.664Z,41.8
2017-05-12T03:08:05.428Z,41.8
2017-05-12T03:10:07.816Z,41.6
2017-05-12T03:12:05.095Z,41.7
2017-05-12T03:14:05.774Z,42.1
2017-05-12T03:16:06.144Z,41.8
2017-05-12T03:18:05.050Z,41.8
2017-05-12T03:20:05.793Z,41.8
2017-05-12T03:22:06.334Z,41.9
2017-05-12T03:24:08.136Z,41.9
2017-05-12T03:26:05.910Z,41.9
2017-05-12T03:28:08.518Z,41.8
2017-05-12T03:30:05.242Z,41.7
2017-05-12T03:32:05.963Z,41.8
2017-05-12T03:34:05.937Z,41.7
2017-05-12T03:36:05.629Z,41.7
2017-05-12T03:38:05.661Z,41.9
2017-05-12T03:40:05.561Z,41.8
2017-05-12T03:42:08.335Z,41.8
2017-05-12T03:44:05.033Z,41.9
2017-05-12T03:46:08.567Z,41.8
2017-05-12T03:48:05.307Z,41.9
2017-05-12T03:50:07.533Z,42
2017-05-12T03:52:08.315Z,41.8
2017-05-12T03:54:05.352Z,41.8
2017-05-12T03:56:05.628Z,41.9
2017-05-12T03:58:05.456Z,41.9
2017-05-12T04:00:08.525Z,41.7
2017-05-12T04:02:05.726Z,41.7
2017-05-12T04:04:05.750Z,41.9
2017-05-12T04:06:08.030Z,41.8
2017-05-12T04:08:05.729Z,41.8
2017-05-12T04:10:05.583Z,41.8
2017-05-12T04:12:07.806Z,42.1
2017-05-12T04:14:05.623Z,42.1
2017-05-12T04:16:05.488Z,42
2017-05-12T04:18:05.412Z,42.1
2017-05-12T04:20:05.274Z,42.1
2017-05-12T04:22:06.328Z,42.2
2017-05-12T04:24:05.010Z,42.3
2017-05-12T04:26:06.069Z,41.9
2017-05-12T04:28:05.948Z,42.2
2017-05-12T04:30:05.630Z,42.4
2017-05-12T04:32:10.981Z,42.1
2017-05-12T04:34:05.977Z,42.2
2017-05-12T04:36:08.377Z,42.2
2017-05-12T04:38:05.617Z,42.1
2017-05-12T04:40:05.621Z,42.1
2017-05-12T04:42:05.609Z,42.1
2017-05-12T04:44:05.313Z,42.1
2017-05-12T04:46:14.681Z,42.3
2017-05-12T04:48:08.339Z,42.3
2017-05-12T04:50:05.174Z,42.3
2017-05-12T04:52:06.008Z,42.1
2017-05-12T04:54:05.235Z,42.1
2017-05-12T04:56:06.015Z,42.5
2017-05-12T04:58:06.016Z,42.4
2017-05-12T05:00:05.682Z,42.6
2017-05-12T05:02:05.377Z,42.7
2017-05-12T05:04:05.382Z,42.8
2017-05-12T05:06:05.060Z,42.5
2017-05-12T05:08:05.763Z,42.5
2017-05-12T05:10:05.775Z,42.7
2017-05-12T05:12:06.009Z,42.4
2017-05-12T05:14:07.882Z,43
2017-05-12T05:16:05.735Z,42.8
2017-05-12T05:18:13.273Z,43
2017-05-12T05:20:05.482Z,42.7
2017-05-12T05:22:05.827Z,42.8
2017-05-12T05:24:05.627Z,42.8
2017-05-12T05:26:08.392Z,42.6
2017-05-12T05:28:07.794Z,42.8
2017-05-12T05:30:13.254Z,42.6
2017-05-12T05:32:08.016Z,42.5
2017-05-12T05:34:05.859Z,42.5
2017-05-12T05:36:05.600Z,42.5
2017-05-12T05:38:05.306Z,42.5
2017-05-12T05:40:05.268Z,42.4
2017-05-12T05:42:08.471Z,42.8
2017-05-12T05:44:05.180Z,42.8
2017-05-12T05:46:08.115Z,42.6
2017-05-12T05:48:05.357Z,42.6
2017-05-12T05:50:05.060Z,42.6
2017-05-12T05:52:05.925Z,42.6
2017-05-12T05:54:05.630Z,42.6
2017-05-12T05:56:05.375Z,42.5
2017-05-12T05:58:05.244Z,42.4
2017-05-12T06:00:05.958Z,42.6
2017-05-12T06:02:06.089Z,42.7
2017-05-12T06:04:05.941Z,42.7
2017-05-12T06:06:15.859Z,42.5
2017-05-12T06:08:08.079Z,42.6
2017-05-12T06:10:06.050Z,42.6
2017-05-12T06:12:06.079Z,42.6
2017-05-12T06:14:08.466Z,42.7
2017-05-12T06:16:10.169Z,42.7
2017-05-12T06:18:05.676Z,42.5
2017-05-12T06:20:05.355Z,42.6
2017-05-12T06:22:05.312Z,42.8
2017-05-12T06:24:13.657Z,42.9
2017-05-12T06:26:05.396Z,42.9
2017-05-12T06:28:05.368Z,42.9
2017-05-12T06:30:10.165Z,42.9
2017-05-12T06:32:16.489Z,42.8
2017-05-12T06:34:10.279Z,42.9
2017-05-12T06:36:07.533Z,42.8
2017-05-12T06:38:05.738Z,42.8
2017-05-12T06:40:10.795Z,43
2017-05-12T06:42:05.500Z,43
2017-05-12T06:44:05.936Z,42.9
2017-05-12T06:46:05.980Z,42.7
2017-05-12T06:48:05.698Z,42.9
2017-05-12T06:50:06.005Z,42.8
2017-05-12T06:52:08.635Z,42.7
2017-05-12T06:54:05.418Z,42.7
2017-05-12T06:56:07.873Z,42.5
2017-05-12T06:58:05.686Z,42.5
2017-05-12T07:00:05.958Z,42.6
2017-05-12T07:02:13.253Z,42.8
2017-05-12T07:04:05.612Z,42.5
2017-05-12T07:06:08.137Z,42.4
2017-05-12T07:08:10.918Z,42.3
2017-05-12T07:10:05.932Z,42.3
2017-05-12T07:12:05.218Z,42.3
2017-05-12T07:14:05.948Z,42.3
2017-05-12T07:16:05.961Z,42.5
2017-05-12T07:18:10.550Z,42.6
2017-05-12T07:20:07.784Z,42.6
2017-05-12T07:22:05.838Z,42.6
2017-05-12T07:24:05.707Z,42.6
2017-05-12T07:26:05.596Z,42.5
2017-05-12T07:28:05.462Z,42.5
2017-05-12T07:30:05.211Z,42.5
2017-05-12T07:32:05.980Z,42.4
2017-05-12T07:34:05.997Z,42.4
2017-05-12T07:36:05.703Z,42.4
2017-05-12T07:38:05.727Z,42.3
2017-05-12T07:40:05.690Z,42.2
2017-05-12T07:42:07.913Z,42.4
2017-05-12T07:44:05.262Z,42.4
2017-05-12T07:46:06.306Z,42.3
2017-05-12T07:48:05.980Z,42.3
2017-05-12T07:50:05.718Z,42.4
2017-05-12T07:52:08.082Z,42.3
2017-05-12T07:54:06.048Z,42.3
2017-05-12T07:56:05.819Z,42.5
2017-05-12T07:58:07.903Z,42.4
2017-05-12T08:00:05.570Z,42.4
2017-05-12T08:02:05.291Z,42.6
2017-05-12T08:04:10.226Z,42.4
2017-05-12T08:06:05.973Z,42.4
2017-05-12T08:08:05.726Z,42.6
2017-05-12T08:10:05.552Z,42.5
2017-05-12T08:12:05.407Z,42.4
2017-05-12T08:14:05.251Z,42.3
2017-05-12T08:16:06.085Z,42.3
2017-05-12T08:18:05.996Z,42.3
2017-05-12T08:20:05.742Z,42.3
2017-05-12T08:22:05.770Z,42.3
2017-05-12T08:24:05.467Z,42.3
2017-05-12T08:26:08.586Z,42.4
2017-05-12T08:28:08.190Z,42.4
2017-05-12T08:30:06.963Z,42.4
2017-05-12T08:32:08.274Z,42.4
2017-05-12T08:34:08.800Z,42.4
2017-05-12T08:36:07.561Z,42.4
2017-05-12T08:38:05.295Z,42.4
2017-05-12T08:40:05.173Z,42.4
2017-05-12T08:42:05.975Z,42.1
2017-05-12T08:44:05.694Z,42.3
2017-05-12T08:46:13.365Z,42.3
2017-05-12T08:48:05.079Z,42.3
2017-05-12T08:50:05.848Z,42.6
2017-05-12T08:52:08.436Z,42.4
2017-05-12T08:54:05.410Z,42.4
2017-05-12T08:56:05.204Z,42.6
2017-05-12T08:58:06.159Z,42.5
2017-05-12T09:00:05.828Z,42.4
2017-05-12T09:02:08.101Z,42.2
2017-05-12T09:04:08.683Z,42.4
2017-05-12T09:06:05.426Z,42.5
2017-05-12T09:08:05.717Z,42.4
2017-05-12T09:10:07.013Z,42.5
2017-05-12T09:12:05.904Z,42.5
2017-05-12T09:14:05.876Z,42.5
2017-05-12T09:16:05.688Z,42.6
2017-05-12T09:18:05.641Z,42.9
2017-05-12T09:20:05.306Z,42.6
2017-05-12T09:22:06.090Z,42.8
2017-05-12T09:24:08.014Z,42.7
2017-05-12T09:26:05.243Z,42.7
2017-05-12T09:28:08.781Z,42.9
2017-05-12T09:30:06.299Z,42.7
2017-05-12T09:32:08.566Z,42.8
2017-05-12T09:34:07.931Z,42.8
2017-05-12T09:36:05.135Z,42.8
2017-05-12T09:38:05.379Z,42.8
2017-05-12T09:40:05.232Z,42.8
2017-05-12T09:42:06.159Z,42.9
2017-05-12T09:44:05.900Z,42.9
2017-05-12T09:46:05.974Z,42.8
2017-05-12T09:48:05.661Z,42.8
2017-05-12T09:50:05.861Z,42.7
2017-05-12T09:52:05.865Z,42.8
2017-05-12T09:54:05.576Z,42.6
2017-05-12T09:56:07.795Z,42.4
2017-05-12T09:58:05.852Z,42.4
2017-05-12T10:00:05.548Z,42.2
2017-05-12T10:02:05.594Z,41.9
2017-05-12T10:04:05.438Z,41.9
2017-05-12T10:06:05.675Z,42.1
2017-05-12T10:08:05.434Z,42.1
2017-05-12T10:10:05.254Z,42.1
2017-05-12T10:12:05.999Z,42
2017-05-12T10:14:05.671Z,41.6
2017-05-12T10:16:05.566Z,41.8
2017-05-12T10:18:05.611Z,41.5
2017-05-12T10:20:07.838Z,41.6
2017-05-12T10:22:05.760Z,41.4
2017-05-12T10:24:05.464Z,41.3
2017-05-12T10:26:05.689Z,41.3
2017-05-12T10:28:05.831Z,41.3
2017-05-12T10:30:07.603Z,41.3
2017-05-12T10:32:08.384Z,41.3
2017-05-12T10:34:05.798Z,41.3
2017-05-12T10:36:08.004Z,41.3
2017-05-12T10:38:05.889Z,41.3
2017-05-12T10:40:05.877Z,41.3
2017-05-12T10:42:05.584Z,41.1
2017-05-12T10:44:05.259Z,41
2017-05-12T10:46:06.152Z,41
2017-05-12T10:48:05.942Z,40.9
2017-05-12T10:50:05.951Z,40.8
2017-05-12T10:52:06.017Z,40.6
2017-05-12T10:54:05.712Z,40.5
2017-05-12T10:56:05.384Z,40.5
2017-05-12T10:58:07.756Z,40.5
2017-05-12T11:00:05.077Z,40.5
2017-05-12T11:02:08.271Z,40.4
2017-05-12T11:04:05.800Z,40.4
2017-05-12T11:06:08.177Z,40.2
2017-05-12T11:08:05.474Z,40.2
2017-05-12T11:10:08.044Z,40.1
2017-05-12T11:12:05.816Z,40.1
2017-05-12T11:14:07.577Z,40
2017-05-12T11:16:05.993Z,40
2017-05-12T11:18:07.984Z,40.1
2017-05-12T11:20:05.656Z,40.1
2017-05-12T11:22:05.652Z,40.1
2017-05-12T11:24:05.324Z,40
2017-05-12T11:26:05.096Z,40
2017-05-12T11:28:10.395Z,39.9
2017-05-12T11:30:05.120Z,39.9
2017-05-12T11:32:05.379Z,39.9
2017-05-12T11:34:05.911Z,39.9
2017-05-12T11:36:05.615Z,39.8
2017-05-12T11:38:05.974Z,39.7
2017-05-12T11:40:10.614Z,39.4
2017-05-12T11:42:05.370Z,39.6
2017-05-12T11:44:05.081Z,39.7
2017-05-12T11:46:05.930Z,40
2017-05-12T11:48:05.751Z,39.9
2017-05-12T11:50:13.028Z,40.2
2017-05-12T11:52:05.867Z,40.4
2017-05-12T11:54:05.863Z,40.2
2017-05-12T11:56:08.080Z,39.9
2017-05-12T11:58:05.943Z,39.9
2017-05-12T12:00:05.707Z,39.7
2017-05-12T12:02:08.076Z,39.6
2017-05-12T12:04:06.266Z,39.6
2017-05-12T12:06:06.026Z,39.6
2017-05-12T12:08:08.295Z,39.5
2017-05-12T12:10:06.378Z,39.5
2017-05-12T12:12:05.116Z,39.5
2017-05-12T12:14:05.872Z,39.5
2017-05-12T12:16:05.904Z,39.4
2017-05-12T12:18:05.355Z,39.4
2017-05-12T12:20:05.017Z,39.3
2017-05-12T12:22:06.013Z,39.3
2017-05-12T12:24:05.676Z,39.4
2017-05-12T12:26:13.302Z,39.4
2017-05-12T12:28:05.316Z,39.4
2017-05-12T12:30:05.028Z,39.4
2017-05-12T12:32:05.713Z,39.4
2017-05-12T12:34:05.157Z,39.6
2017-05-12T12:36:13.462Z,39.6
2017-05-12T12:38:05.174Z,39.6
2017-05-12T12:40:13.353Z,39.6
2017-05-12T12:42:05.747Z,39.6
2017-05-12T12:44:05.443Z,39.5
2017-05-12T12:46:05.476Z,39.4
2017-05-12T12:48:05.263Z,39.5
2017-05-12T12:50:05.974Z,39.4
2017-05-12T12:52:08.308Z,39.3
2017-05-12T12:54:05.097Z,39.3
2017-05-12T12:56:05.845Z,39.3
2017-05-12T12:58:05.766Z,39.3
2017-05-12T13:00:05.057Z,39.3
2017-05-12T13:02:08.323Z,39.3
2017-05-12T13:04:05.810Z,39.3
2017-05-12T13:06:06.135Z,39.3
2017-05-12T13:08:05.567Z,39.3
2017-05-12T13:10:06.040Z,39.3
2017-05-12T13:12:05.779Z,39.3
2017-05-12T13:14:05.161Z,39.3
2017-05-12T13:16:06.168Z,39.3
2017-05-12T13:18:05.099Z,39.3
2017-05-12T13:20:05.798Z,39.3
2017-05-12T13:22:05.763Z,39.3
2017-05-12T13:24:05.461Z,39.5
2017-05-12T13:26:05.205Z,39.5
2017-05-12T13:28:06.710Z,39.7
2017-05-12T13:30:05.560Z,39.8
2017-05-12T13:32:05.251Z,39.9
2017-05-12T13:34:05.923Z,40
2017-05-12T13:36:08.838Z,40
2017-05-12T13:38:09.360Z,40
2017-05-12T13:40:05.244Z,40
2017-05-12T13:42:05.431Z,40.2
2017-05-12T13:44:06.612Z,40
2017-05-12T13:46:06.253Z,40.2
2017-05-12T13:48:08.773Z,40.2
2017-05-12T13:50:08.403Z,40.2
2017-05-12T13:52:05.745Z,40.1
2017-05-12T13:54:05.462Z,40
2017-05-12T13:56:11.063Z,39.9
2017-05-12T13:58:08.616Z,40
2017-05-12T14:00:06.338Z,39.8
2017-05-12T14:02:05.342Z,40
2017-05-12T14:04:05.150Z,40
2017-05-12T14:06:06.512Z,40
2017-05-12T14:08:05.205Z,40
2017-05-12T14:10:06.255Z,40
2017-05-12T14:12:06.252Z,40
2017-05-12T14:14:08.477Z,39.8
2017-05-12T14:16:10.525Z,40
2017-05-12T14:18:05.759Z,40
2017-05-12T14:20:05.475Z,40
2017-05-12T14:22:05.508Z,40
2017-05-12T14:24:05.245Z,40
2017-05-12T14:26:05.483Z,40
2017-05-12T14:28:10.658Z,40
2017-05-12T14:30:05.363Z,40
2017-05-12T14:32:05.143Z,40.2
2017-05-12T14:34:06.140Z,40.2
2017-05-12T14:36:05.861Z,40.1
2017-05-12T14:38:05.140Z,40.1
2017-05-12T14:40:11.062Z,39.9
2017-05-12T14:42:05.834Z,39.9
2017-05-12T14:44:05.136Z,39.9
2017-05-12T14:46:06.044Z,39.8
2017-05-12T14:48:05.812Z,39.9
2017-05-12T14:50:05.661Z,39.9
2017-05-12T14:52:05.721Z,39.8
2017-05-12T14:54:07.946Z,40
2017-05-12T14:56:05.692Z,40
2017-05-12T14:58:08.272Z,39.9
2017-05-12T15:00:08.461Z,39.9
2017-05-12T15:02:05.162Z,39.9
2017-05-12T15:04:06.374Z,40
2017-05-12T15:06:05.425Z,39.9
2017-05-12T15:08:05.146Z,39.9
2017-05-12T15:10:05.817Z,40.2
2017-05-12T15:12:05.129Z,40.4
2017-05-12T15:14:05.857Z,40.4
2017-05-12T15:16:10.902Z,40.4
2017-05-12T15:18:05.794Z,40.4
2017-05-12T15:20:05.676Z,40.4
2017-05-12T15:22:05.817Z,40.7
2017-05-12T15:24:10.615Z,40.7
2017-05-12T15:26:05.489Z,40.7
2017-05-12T15:28:05.502Z,40.6
2017-05-12T15:30:05.272Z,40.7
2017-05-12T15:32:06.124Z,40.5
2017-05-12T15:34:05.630Z,40.5
2017-05-12T15:36:05.366Z,40.4
2017-05-12T15:38:05.465Z,40.3
2017-05-12T15:40:05.986Z,40.4
2017-05-12T15:42:05.684Z,40.2
2017-05-12T15:44:05.948Z,40.1
2017-05-12T15:46:05.514Z,40.2
2017-05-12T15:48:05.320Z,40.1
2017-05-12T15:50:07.521Z,40
2017-05-12T15:52:05.575Z,40
2017-05-12T15:54:06.263Z,40
2017-05-12T15:56:08.473Z,39.9
2017-05-12T15:58:05.468Z,39.9
2017-05-12T16:00:05.159Z,40.2
2017-05-12T16:02:05.853Z,39.9
2017-05-12T16:04:08.305Z,40.1
2017-05-12T16:06:07.653Z,39.8
2017-05-12T16:08:07.879Z,40
2017-05-12T16:10:05.990Z,39.8
2017-05-12T16:12:05.680Z,39.8
2017-05-12T16:14:05.363Z,39.8
2017-05-12T16:16:05.297Z,39.9
2017-05-12T16:18:10.235Z,39.8
2017-05-12T16:20:05.949Z,39.8
2017-05-12T16:22:08.413Z,40.1
2017-05-12T16:24:10.215Z,39.9
2017-05-12T16:26:06.065Z,39.9
2017-05-12T16:28:05.638Z,40
2017-05-12T16:30:05.943Z,40
2017-05-12T16:32:05.616Z,40.1
2017-05-12T16:34:08.228Z,40.1
2017-05-12T16:36:10.534Z,40.1
2017-05-12T16:38:05.769Z,40.1
2017-05-12T16:40:05.754Z,40.1
2017-05-12T16:42:05.539Z,40.4
2017-05-12T16:44:05.242Z,40.5
2017-05-12T16:46:06.067Z,40.7
2017-05-12T16:48:05.756Z,40.7
2017-05-12T16:50:05.465Z,40.7
2017-05-12T16:52:05.853Z,40.7
2017-05-12T16:54:05.575Z,40.7
2017-05-12T16:56:05.494Z,40.7
2017-05-12T16:58:08.149Z,40.7
2017-05-12T17:00:06.116Z,40.7
2017-05-12T17:02:06.061Z,40.7
2017-05-12T17:04:08.561Z,40.7
2017-05-12T17:06:05.325Z,40.7
2017-05-12T17:08:07.594Z,40.7
2017-05-12T17:10:08.659Z,40.7
2017-05-12T17:12:10.432Z,40.7
2017-05-12T17:14:05.332Z,40.7
2017-05-12T17:16:05.413Z,40.7
2017-05-12T17:18:05.557Z,40.7
2017-05-12T17:20:05.518Z,40.7
2017-05-12T17:22:11.042Z,40.7
2017-05-12T17:24:05.711Z,40.7
2017-05-12T17:26:08.345Z,40.7
2017-05-12T17:28:08.204Z,40.7
2017-05-12T17:30:06.088Z,40.7
2017-05-12T17:32:07.452Z,40.7
2017-05-12T17:34:05.188Z,40.7
2017-05-12T17:36:05.097Z,40.7
2017-05-12T17:38:05.801Z,40.4
2017-05-12T17:40:05.625Z,40.7
2017-05-12T17:42:07.863Z,40.5
2017-05-12T17:44:05.644Z,40.5
2017-05-12T17:46:13.353Z,40.6
2017-05-12T17:48:05.082Z,40.5
2017-05-12T17:50:05.340Z,40.8
2017-05-12T17:52:05.309Z,40.5
2017-05-12T17:54:07.076Z,40.9
2017-05-12T17:56:06.989Z,40.7
2017-05-12T17:58:06.242Z,40.7
2017-05-12T18:00:08.537Z,40.7
2017-05-12T18:02:05.452Z,40.8
2017-05-12T18:04:05.334Z,40.8
2017-05-12T18:06:05.646Z,40.9
2017-05-12T18:08:05.426Z,40.9
2017-05-12T18:10:05.288Z,40.9
2017-05-12T18:12:08.071Z,41
2017-05-12T18:14:05.988Z,41
2017-05-12T18:16:05.844Z,41
2017-05-12T18:18:08.821Z,40.9
2017-05-12T18:20:05.141Z,40.9
2017-05-12T18:22:06.262Z,40.9
2017-05-12T18:24:08.190Z,40.8
2017-05-12T18:26:05.935Z,40.8
2017-05-12T18:28:05.958Z,41
2017-05-12T18:30:05.683Z,40.8
2017-05-12T18:32:05.970Z,41.1
2017-05-12T18:34:10.895Z,41
2017-05-12T18:36:05.133Z,41.3
2017-05-12T18:38:05.610Z,41.2
2017-05-12T18:40:06.398Z,41.1
2017-05-12T18:42:05.316Z,41.1
2017-05-12T18:44:05.163Z,41.1
2017-05-12T18:46:07.549Z,41.2
2017-05-12T18:48:05.481Z,41.1
2017-05-12T18:50:05.735Z,41.2
2017-05-12T18:52:05.632Z,41.2
2017-05-12T18:54:05.073Z,41.3
2017-05-12T18:56:05.282Z,41.3
2017-05-12T18:58:06.273Z,41.3
2017-05-12T19:00:05.523Z,41.3
2017-05-12T19:02:05.759Z,41.3
2017-05-12T19:04:06.207Z,41.3
2017-05-12T19:06:08.529Z,41.3
2017-05-12T19:08:10.312Z,41.4
2017-05-12T19:10:05.832Z,41.4
2017-05-12T19:12:05.073Z,41.4
2017-05-12T19:14:06.014Z,41.4
2017-05-12T19:16:05.629Z,41.4
2017-05-12T19:18:10.614Z,41.4
2017-05-12T19:20:05.332Z,41.4
2017-05-12T19:22:18.239Z,41.4
2017-05-12T19:24:06.191Z,41.4
2017-05-12T19:26:05.392Z,41.4
2017-05-12T19:28:05.493Z,41.4
2017-05-12T19:30:05.209Z,41.5
2017-05-12T19:32:05.895Z,41.4
2017-05-12T19:34:05.502Z,41.2
2017-05-12T19:36:05.164Z,41.5
2017-05-12T19:38:06.184Z,41.7
2017-05-12T19:40:08.719Z,41.2
2017-05-12T19:42:05.411Z,41.2
2017-05-12T19:44:05.721Z,41.2
2017-05-12T19:46:05.808Z,41.1
2017-05-12T19:48:05.524Z,41.2
2017-05-12T19:50:05.754Z,41.4
2017-05-12T19:52:05.823Z,41.2
2017-05-12T19:54:05.668Z,41.2
2017-05-12T19:56:05.369Z,41.2
2017-05-12T19:58:05.346Z,41.2
2017-05-12T20:00:07.618Z,41.3
2017-05-12T20:02:05.336Z,41.2
2017-05-12T20:04:10.093Z,41.3
2017-05-12T20:06:05.777Z,41.3
2017-05-12T20:08:11.044Z,41.3
2017-05-12T20:10:11.407Z,41.3
2017-05-12T20:12:05.777Z,41.3
2017-05-12T20:14:05.752Z,41.3
2017-05-12T20:16:08.056Z,41.2
2017-05-12T20:18:05.927Z,41.2
2017-05-12T20:20:05.614Z,41.2
2017-05-12T20:22:06.449Z,41.2
2017-05-12T20:24:07.697Z,41.3
2017-05-12T20:26:05.779Z,41.2
2017-05-12T20:28:05.824Z,41.3
2017-05-12T20:30:05.611Z,41.2
2017-05-12T20:32:05.376Z,41.3
2017-05-12T20:34:07.730Z,41.2
2017-05-12T20:36:07.908Z,41.3
2017-05-12T20:38:05.601Z,41.2
2017-05-12T20:40:05.563Z,41.3
2017-05-12T20:42:05.646Z,41.2
2017-05-12T20:44:05.328Z,41.2
2017-05-12T20:46:05.886Z,41.3
2017-05-12T20:48:10.160Z,41.2
2017-05-12T20:50:05.384Z,41.2
2017-05-12T20:52:05.958Z,41.2
2017-05-12T20:54:08.182Z,41
2017-05-12T20:56:10.955Z,41.2
2017-05-12T20:58:05.802Z,41.2
2017-05-12T21:00:08.064Z,41.2
2017-05-12T21:02:10.389Z,41.2
2017-05-12T21:04:05.249Z,41.2
2017-05-12T21:06:05.471Z,41.1
2017-05-12T21:08:05.353Z,41.1
2017-05-12T21:10:05.520Z,41.2
2017-05-12T21:12:05.223Z,41.2
2017-05-12T21:14:06.035Z,41.1
2017-05-12T21:16:05.415Z,40.9
2017-05-12T21:18:05.355Z,40.9
2017-05-12T21:20:05.282Z,41.1
2017-05-12T21:22:05.811Z,41.1
2017-05-12T21:24:08.033Z,41.2
2017-05-12T21:26:05.323Z,40.9
2017-05-12T21:28:10.283Z,40.9
2017-05-12T21:30:06.245Z,40.9
2017-05-12T21:32:08.058Z,40.9
2017-05-12T21:34:06.084Z,40.9
2017-05-12T21:36:08.336Z,40.9
2017-05-12T21:38:05.027Z,40.9
2017-05-12T21:40:06.081Z,41.2
2017-05-12T21:42:08.523Z,41.2
2017-05-12T21:44:05.700Z,41.2
2017-05-12T21:46:06.782Z,40.9
2017-05-12T21:48:05.490Z,40.9
2017-05-12T21:50:05.214Z,40.9
2017-05-12T21:52:06.327Z,40.9
2017-05-12T21:54:05.050Z,40.9
2017-05-12T22:00:06.088Z,40.8
2017-05-12T22:02:05.809Z,40.8
2017-05-12T22:04:05.519Z,40.9
2017-05-12T22:06:05.860Z,40.9
2017-05-12T22:08:05.498Z,40.9
2017-05-12T22:10:13.339Z,41
2017-05-12T22:12:05.405Z,41
2017-05-12T22:14:05.629Z,41
2017-05-12T22:16:05.750Z,41
2017-05-12T22:18:08.309Z,40.9
2017-05-12T22:20:08.084Z,40.9
2017-05-12T22:22:11.042Z,40.9
2017-05-12T22:24:12.526Z,40.9
2017-05-12T22:26:05.874Z,40.9
2017-05-12T22:28:05.840Z,40.9
2017-05-12T22:30:05.675Z,40.9
2017-05-12T22:32:05.738Z,40.9
2017-05-12T22:34:11.033Z,40.8
2017-05-12T22:36:05.903Z,40.8
2017-05-12T22:38:07.633Z,40.9
2017-05-12T22:40:05.396Z,41.1
2017-05-12T22:42:05.429Z,40.8
2017-05-12T22:44:05.143Z,40.9
2017-05-12T22:46:10.904Z,40.9
2017-05-12T22:48:07.988Z,40.9
2017-05-12T22:50:05.728Z,40.9
2017-05-12T22:52:05.479Z,40.9
2017-05-12T22:54:07.950Z,40.9
2017-05-12T22:56:05.619Z,40.9
2017-05-12T22:58:05.351Z,40.8
2017-05-12T23:00:07.805Z,40.8
2017-05-12T23:02:05.513Z,40.9
2017-05-12T23:04:05.575Z,40.9
2017-05-12T23:06:05.682Z,40.9
2017-05-12T23:08:05.910Z,40.9
2017-05-12T23:10:05.571Z,40.9
2017-05-12T23:12:08.137Z,40.9
2017-05-12T23:14:13.033Z,40.8
2017-05-12T23:16:05.765Z,40.8
2017-05-12T23:18:07.796Z,40.9
2017-05-12T23:20:05.780Z,40.9
2017-05-12T23:22:08.014Z,40.9
2017-05-12T23:24:06.141Z,40.9
2017-05-12T23:26:05.831Z,40.9
2017-05-12T23:28:05.529Z,40.7
2017-05-12T23:30:05.930Z,40.9
2017-05-12T23:32:05.696Z,40.9
2017-05-12T23:34:05.870Z,40.9
2017-05-12T23:36:05.864Z,41
2017-05-12T23:38:05.554Z,41
2017-05-12T23:40:10.387Z,41
2017-05-12T23:42:05.456Z,41
2017-05-12T23:44:05.228Z,41.1
2017-05-12T23:46:05.927Z,41.3
2017-05-12T23:48:08.474Z,41.1
2017-05-12T23:50:05.200Z,41.1
2017-05-12T23:52:06.254Z,41.1
2017-05-12T23:54:06.035Z,41.1
2017-05-12T23:56:05.730Z,41.3
2017-05-12T23:58:05.425Z,41.5
